^^
Station Historical Data
Daily Summary for January 11, 2017 Units:  English    Metric   Both
« Previous Day
Next Day »
Daily Weekly Monthly Yearly Custom
  High: Low: Average:
Temperature: 45.1 °F 31.1 °F 39.2 °F
Dew Point: 43.2 °F 27.5 °F 35.2 °F
Humidity: 94 % 75 % 86 %
Wind Speed: 9.2 mph 0.0 mph 1.3 mph
Wind Gust: 12.0 mph - -
Wind:- - WSW
Pressure: 30.37 in 30.17 in -
Precipitation: 0.57 in    
Historical Graphs
 
 
Tabular Data for January 11, 2017
Time Temperature Dew Point Pressure Wind Wind Speed Wind Gust Humidity Rainfall Rate (Hourly) solar Conditions
00:03 33.6 °F 27.5 °F 30.20 in Calm     78 % 0.02 in 0.0 W/m2 RA
00:08 33.4 °F 27.6 °F 30.20 in Calm     79 % 0.02 in 0.0 W/m2 RA
00:13 33.3 °F 28.1 °F 30.20 in Calm     81 % 0.02 in 0.0 W/m2 CLR
00:18 33.2 °F 28.3 °F 30.21 in Calm     82 % 0.02 in 0.0 W/m2 CLR
00:23 33.1 °F 28.5 °F 30.21 in Calm     83 % 0.02 in 0.0 W/m2 CLR
00:28 33.1 °F 28.8 °F 30.21 in Calm     84 % 0.01 in 0.0 W/m2 CLR
00:33 33.1 °F 29.1 °F 30.20 in Calm     85 % 0.01 in 0.0 W/m2 CLR
00:38 33.0 °F 29.0 °F 30.20 in Calm     85 % 0.02 in 0.0 W/m2 RA
00:43 33.0 °F 29.3 °F 30.20 in Calm     86 % 0.02 in 0.0 W/m2 RA
00:48 33.0 °F 29.3 °F 30.19 in Calm     86 % 0.00 in 0.0 W/m2 RA
00:53 33.0 °F 29.6 °F 30.19 in Calm     87 % 0.00 in 0.0 W/m2 RA
00:58 33.0 °F 29.6 °F 30.19 in Calm     87 % 0.00 in 0.0 W/m2 RA
01:03 32.9 °F 29.7 °F 30.18 in Calm     88 % 0.04 in 0.0 W/m2 RA
01:08 33.0 °F 29.8 °F 30.18 in Calm     88 % 0.06 in 0.0 W/m2 RA
01:13 33.0 °F 29.8 °F 30.18 in Calm     88 % 0.08 in 0.0 W/m2 RA
01:18 33.0 °F 30.1 °F 30.18 in Calm     89 % 0.12 in 0.0 W/m2 RA
01:23 33.2 °F 30.3 °F 30.18 in Calm     89 % 0.15 in 0.0 W/m2 RA
01:28 33.4 °F 30.5 °F 30.19 in WSW 0.1 mph 1.2 mph 89 % 0.17 in 0.0 W/m2 RA
01:33 33.5 °F 30.6 °F 30.18 in Calm     89 % 0.19 in 0.0 W/m2 RA
01:38 33.5 °F 30.6 °F 30.18 in Calm     89 % 0.20 in 0.0 W/m2 RA
01:43 33.5 °F 30.9 °F 30.18 in Calm     90 % 0.20 in 0.0 W/m2 RA
01:48 34.1 °F 31.5 °F 30.18 in SSW 0.6 mph 3.5 mph 90 % 0.19 in 0.0 W/m2
01:53 34.3 °F 31.7 °F 30.18 in South 0.3 mph 2.3 mph 90 % 0.19 in 0.0 W/m2
01:58 34.8 °F 32.2 °F 30.18 in SSW 4.0 mph 5.8 mph 90 % 0.18 in 0.0 W/m2
02:03 35.1 °F 32.5 °F 30.17 in SSW 4.0 mph 10.4 mph 90 % 0.17 in 0.0 W/m2 RA
02:08 35.5 °F 32.9 °F 30.18 in SSW 4.0 mph 8.1 mph 90 % 0.16 in 0.0 W/m2 RA
02:13 35.9 °F 33.3 °F 30.18 in SSW 4.8 mph 10.4 mph 90 % 0.14 in 0.0 W/m2
02:18 35.9 °F 33.3 °F 30.18 in SSW 4.3 mph 5.8 mph 90 % 0.10 in 0.0 W/m2
02:23 36.1 °F 33.5 °F 30.18 in SSW 4.1 mph 9.2 mph 90 % 0.07 in 0.0 W/m2
02:28 36.3 °F 33.6 °F 30.19 in SW 7.0 mph 11.5 mph 90 % 0.05 in 0.0 W/m2
02:33 36.5 °F 33.8 °F 30.18 in SW 3.3 mph 6.9 mph 90 % 0.04 in 0.0 W/m2 RA
02:38 36.6 °F 33.9 °F 30.18 in South 4.2 mph 5.8 mph 90 % 0.02 in 0.0 W/m2 RA
02:43 36.7 °F 34.0 °F 30.18 in South 6.7 mph 10.4 mph 90 % 0.02 in 0.0 W/m2
02:48 36.9 °F 34.0 °F 30.19 in SSW 5.0 mph 9.2 mph 89 % 0.02 in 0.0 W/m2
02:53 37.0 °F 34.1 °F 30.19 in WSW 9.2 mph 11.5 mph 89 % 0.02 in 0.0 W/m2
02:58 37.2 °F 34.3 °F 30.19 in SW 5.4 mph 8.1 mph 89 % 0.02 in 0.0 W/m2
03:09 37.2 °F 34.3 °F 30.18 in South 7.1 mph 12.0 mph 89 % 0.02 in 0.0 W/m2 RA
03:14 37.3 °F 34.1 °F 30.18 in SW 5.8 mph 10.4 mph 88 % 0.02 in 0.0 W/m2
03:20 37.4 °F 34.2 °F 30.19 in SW 5.1 mph 11.5 mph 88 % 0.02 in 0.0 W/m2
03:25 37.4 °F 34.2 °F 30.19 in SSW 6.2 mph 11.5 mph 88 % 0.02 in 0.0 W/m2
03:30 37.3 °F 34.1 °F 30.20 in SSW 3.5 mph 6.9 mph 88 % 0.02 in 0.0 W/m2
03:31 37.3 °F 34.1 °F 30.20 in SSW 3.7 mph 9.2 mph 88 % 0.02 in 0.0 W/m2
03:36 37.3 °F 33.8 °F 30.19 in SSW 3.6 mph 4.6 mph 87 % 0.01 in 0.0 W/m2
03:41 37.3 °F 33.8 °F 30.19 in SW 6.0 mph 8.1 mph 87 % 0.01 in 0.0 W/m2
03:46 37.4 °F 33.9 °F 30.18 in SSW 6.9 mph 11.5 mph 87 % 0.01 in 0.0 W/m2
03:51 37.4 °F 33.9 °F 30.19 in SSW 5.3 mph 8.1 mph 87 % 0.01 in 0.0 W/m2
03:56 37.4 °F 33.9 °F 30.19 in SW 5.3 mph 9.2 mph 87 % 0.01 in 0.0 W/m2
04:01 37.4 °F 33.6 °F 30.19 in WSW 5.1 mph 11.5 mph 86 % 0.01 in 0.0 W/m2
04:07 37.5 °F 33.7 °F 30.19 in SSW 6.3 mph 11.5 mph 86 % 0.00 in 0.0 W/m2 CLR
04:12 37.4 °F 33.6 °F 30.20 in SSW 3.5 mph 8.1 mph 86 % 0.00 in 0.0 W/m2 CLR
04:17 37.5 °F 33.7 °F 30.19 in SW 3.5 mph 8.1 mph 86 % 0.00 in 0.0 W/m2 CLR
04:22 37.4 °F 33.6 °F 30.20 in WSW 4.0 mph 8.1 mph 86 % 0.00 in 0.0 W/m2 CLR
04:27 37.4 °F 33.6 °F 30.20 in SW 3.2 mph 4.6 mph 86 % 0.00 in 0.0 W/m2 CLR
04:32 37.3 °F 33.5 °F 30.20 in SSW 5.2 mph 5.2 mph 86 % 0.00 in 0.0 W/m2 CLR
04:37 37.3 °F 33.5 °F 30.21 in SW 4.7 mph 10.4 mph 86 % 0.00 in 0.0 W/m2 CLR
04:42 37.3 °F 33.5 °F 30.21 in WSW 5.5 mph 6.9 mph 86 % 0.00 in 0.0 W/m2 CLR
04:47 37.2 °F 33.1 °F 30.21 in SW 0.8 mph 4.6 mph 85 % 0.00 in 0.0 W/m2 CLR
04:52 37.1 °F 33.0 °F 30.22 in SW 0.3 mph 2.3 mph 85 % 0.00 in 0.0 W/m2 CLR
04:57 36.9 °F 33.1 °F 30.22 in SW 0.5 mph 4.6 mph 86 % 0.00 in 0.0 W/m2 CLR
05:02 36.8 °F 33.0 °F 30.22 in SW 4.4 mph 6.9 mph 86 % 0.00 in 0.0 W/m2 CLR
05:07 36.6 °F 32.8 °F 30.22 in Calm     86 % 0.00 in 0.0 W/m2 CLR
05:12 36.4 °F 32.6 °F 30.23 in SW 1.0 mph 3.5 mph 86 % 0.00 in 0.0 W/m2 CLR
05:17 36.3 °F 32.5 °F 30.23 in SW 0.3 mph 2.0 mph 86 % 0.00 in 0.0 W/m2 CLR
05:22 36.1 °F 32.3 °F 30.24 in SW 0.1 mph 1.2 mph 86 % 0.00 in 0.0 W/m2 CLR
05:27 36.1 °F 32.6 °F 30.24 in SW 1.1 mph 3.5 mph 87 % 0.00 in 0.0 W/m2 CLR
05:32 35.9 °F 32.1 °F 30.24 in SW 0.1 mph 1.2 mph 86 % 0.00 in 0.0 W/m2 CLR
05:37 35.9 °F 32.4 °F 30.24 in SW 0.3 mph 2.3 mph 87 % 0.00 in 0.0 W/m2 CLR
05:42 35.8 °F 32.3 °F 30.25 in SW 0.5 mph 2.3 mph 87 % 0.00 in 0.0 W/m2 CLR
05:47 35.6 °F 32.1 °F 30.25 in SW 0.6 mph 2.3 mph 87 % 0.00 in 0.0 W/m2 CLR
05:52 35.4 °F 31.9 °F 30.26 in SW 0.4 mph 2.3 mph 87 % 0.00 in 0.0 W/m2 CLR
05:57 35.4 °F 31.9 °F 30.27 in SW 2.0 mph 3.5 mph 87 % 0.00 in 0.0 W/m2 CLR
06:02 35.2 °F 31.7 °F 30.27 in SW 0.1 mph 1.2 mph 87 % 0.00 in 0.0 W/m2 CLR
06:07 35.2 °F 32.0 °F 30.27 in SW 1.5 mph 3.5 mph 88 % 0.00 in 0.0 W/m2 CLR
06:12 35.2 °F 32.0 °F 30.27 in SW 0.9 mph 3.5 mph 88 % 0.00 in 0.0 W/m2 CLR
06:17 35.0 °F 31.8 °F 30.27 in Calm     88 % 0.00 in 0.0 W/m2 CLR
06:22 34.9 °F 31.7 °F 30.27 in SW 0.5 mph 2.3 mph 88 % 0.00 in 0.0 W/m2 CLR
06:27 34.8 °F 31.6 °F 30.27 in Calm     88 % 0.00 in 0.0 W/m2 CLR
06:32 34.5 °F 31.3 °F 30.27 in Calm     88 % 0.00 in 0.0 W/m2 CLR
06:37 34.0 °F 30.8 °F 30.27 in Calm     88 % 0.00 in 0.0 W/m2 CLR
06:42 33.4 °F 30.2 °F 30.27 in Calm     88 % 0.00 in 0.0 W/m2 CLR
06:47 33.4 °F 30.2 °F 30.28 in Calm     88 % 0.00 in 0.0 W/m2 CLR
06:52 33.4 °F 30.5 °F 30.28 in Calm     89 % 0.00 in 0.0 W/m2 CLR
06:57 33.2 °F 30.3 °F 30.28 in Calm     89 % 0.00 in 0.0 W/m2 CLR
07:02 33.2 °F 30.3 °F 30.28 in Calm     89 % 0.00 in 0.0 W/m2 OVC
07:07 33.1 °F 29.9 °F 30.28 in Calm     88 % 0.00 in 0.0 W/m2 OVC
07:12 32.8 °F 29.6 °F 30.29 in Calm     88 % 0.00 in 0.0 W/m2 OVC
07:17 32.3 °F 29.1 °F 30.29 in Calm     88 % 0.00 in 0.0 W/m2 OVC
07:22 31.9 °F 28.8 °F 30.29 in Calm     88 % 0.00 in 0.0 W/m2 OVC
07:27 31.8 °F 28.7 °F 30.30 in Calm     88 % 0.00 in 0.0 W/m2 OVC
07:32 31.6 °F 28.7 °F 30.31 in Calm     89 % 0.00 in 7.0 W/m2 OVC
07:37 31.4 °F 28.5 °F 30.31 in Calm     89 % 0.00 in 9.0 W/m2 OVC
07:42 31.3 °F 28.4 °F 30.31 in Calm     89 % 0.00 in 11.0 W/m2 OVC
07:47 31.1 °F 28.2 °F 30.31 in Calm     89 % 0.00 in 14.0 W/m2 CLR
07:52 31.7 °F 29.1 °F 30.31 in Calm     90 % 0.00 in 16.0 W/m2 CLR
07:57 31.9 °F 29.3 °F 30.32 in Calm     90 % 0.00 in 18.0 W/m2 CLR
08:02 32.4 °F 30.1 °F 30.32 in Calm     91 % 0.00 in 23.0 W/m2 CLR
08:07 32.8 °F 30.5 °F 30.32 in Calm     91 % 0.00 in 28.0 W/m2 CLR
08:12 33.0 °F 30.7 °F 30.32 in Calm     91 % 0.00 in 26.0 W/m2 FEW
08:17 33.1 °F 30.8 °F 30.33 in WSW 0.2 mph   91 % 0.00 in 25.0 W/m2 SCT
08:22 33.2 °F 30.9 °F 30.33 in Calm     91 % 0.00 in 39.0 W/m2 SCT
08:27 33.0 °F 30.7 °F 30.33 in Calm     91 % 0.00 in 39.0 W/m2 SCT
08:32 33.7 °F 31.4 °F 30.33 in Calm     91 % 0.00 in 51.0 W/m2 SCT
08:37 34.1 °F 31.7 °F 30.33 in Calm     91 % 0.00 in 58.0 W/m2 CLR
08:42 34.4 °F 32.0 °F 30.33 in Calm     91 % 0.01 in 37.0 W/m2 RA
08:48 34.7 °F 32.3 °F 30.34 in Calm     91 % 0.01 in 98.0 W/m2 RA
08:53 34.9 °F 32.3 °F 30.34 in Calm     90 % 0.01 in 141.0 W/m2 CLR
08:58 35.3 °F 32.7 °F 30.34 in Calm   2.3 mph 90 % 0.01 in 172.0 W/m2 CLR
09:03 35.9 °F 33.3 °F 30.35 in SW 3.2 mph 7.0 mph 90 % 0.01 in 183.0 W/m2 CLR
09:08 36.5 °F 33.6 °F 30.34 in WSW 0.5 mph 2.3 mph 89 % 0.01 in 213.0 W/m2 CLR
09:13 36.8 °F 33.6 °F 30.34 in West 3.1 mph 4.0 mph 88 % 0.01 in 90.0 W/m2 CLR
09:18 36.9 °F 33.4 °F 30.34 in West 2.0 mph 3.5 mph 87 % 0.01 in 60.0 W/m2 BKN
09:23 37.2 °F 33.7 °F 30.34 in West 1.1 mph 2.3 mph 87 % 0.01 in 84.0 W/m2 SCT
09:28 37.6 °F 33.8 °F 30.34 in Calm     86 % 0.01 in 107.0 W/m2 SCT
09:33 37.5 °F 33.4 °F 30.35 in Calm     85 % 0.01 in 155.0 W/m2 FEW
09:38 37.6 °F 33.5 °F 30.35 in West 1.8 mph 3.5 mph 85 % 0.01 in 134.0 W/m2 FEW
09:43 37.7 °F 33.6 °F 30.35 in WSW 2.1 mph 3.5 mph 85 % 0.00 in 178.0 W/m2 CLR
09:48 38.0 °F 33.9 °F 30.35 in WSW 1.5 mph 3.5 mph 85 % 0.00 in 179.0 W/m2 CLR
09:53 38.1 °F 33.7 °F 30.35 in West 2.4 mph 3.5 mph 84 % 0.00 in 165.0 W/m2 CLR
09:58 38.1 °F 33.7 °F 30.36 in WSW 2.4 mph 3.5 mph 84 % 0.00 in 183.0 W/m2 CLR
10:03 38.1 °F 33.7 °F 30.36 in WSW 4.1 mph 9.2 mph 84 % 0.00 in 162.0 W/m2 FEW
10:08 38.0 °F 33.3 °F 30.37 in West 1.8 mph 3.5 mph 83 % 0.00 in 218.0 W/m2 CLR
10:15 38.2 °F 33.5 °F 30.36 in WSW 3.6 mph 6.9 mph 83 % 0.00 in 285.0 W/m2 CLR
10:20 38.5 °F 33.8 °F 30.37 in WSW 6.2 mph 9.2 mph 83 % 0.00 in 167.0 W/m2 FEW
10:25 38.6 °F 33.9 °F 30.37 in West 3.9 mph 6.0 mph 83 % 0.00 in 148.0 W/m2 SCT
10:30 38.6 °F 33.6 °F 30.37 in West 4.9 mph 6.9 mph 82 % 0.00 in 144.0 W/m2 SCT
10:35 38.7 °F 33.7 °F 30.37 in WSW 4.3 mph 6.0 mph 82 % 0.00 in 169.0 W/m2 SCT
10:40 38.9 °F 33.9 °F 30.37 in West 3.0 mph 8.1 mph 82 % 0.00 in 142.0 W/m2 BKN
10:45 38.8 °F 33.8 °F 30.37 in WSW 1.8 mph 2.3 mph 82 % 0.00 in 139.0 W/m2 BKN
10:50 39.0 °F 34.0 °F 30.36 in West 2.6 mph 3.5 mph 82 % 0.00 in 137.0 W/m2 BKN
10:55 39.2 °F 34.2 °F 30.36 in Calm     82 % 0.00 in 144.0 W/m2 BKN
11:00 39.3 °F 34.3 °F 30.36 in West 1.0 mph 2.3 mph 82 % 0.00 in 171.0 W/m2 SCT
11:05 39.5 °F 34.5 °F 30.36 in West 0.5 mph   82 % 0.00 in 190.0 W/m2 SCT
11:10 39.9 °F 34.9 °F 30.35 in West 3.2 mph 3.5 mph 82 % 0.00 in 278.0 W/m2 CLR
11:15 40.1 °F 34.7 °F 30.35 in WSW 0.1 mph   81 % 0.00 in 192.0 W/m2 SCT
11:20 40.1 °F 34.7 °F 30.35 in WSW 0.5 mph 2.3 mph 81 % 0.00 in 220.0 W/m2 SCT
11:25 40.2 °F 34.5 °F 30.35 in West 2.2 mph 3.5 mph 80 % 0.00 in 216.0 W/m2 SCT
11:30 40.4 °F 34.7 °F 30.35 in West 3.2 mph 3.5 mph 80 % 0.00 in 269.0 W/m2 CLR
11:35 40.7 °F 35.0 °F 30.35 in West 4.6 mph 6.9 mph 80 % 0.00 in 260.0 W/m2 CLR
11:40 41.2 °F 35.2 °F 30.35 in West 0.6 mph 2.3 mph 79 % 0.00 in 274.0 W/m2 CLR
11:45 41.5 °F 35.5 °F 30.35 in West 5.2 mph 7.0 mph 79 % 0.00 in 244.0 W/m2 FEW
11:50 41.2 °F 34.9 °F 30.35 in West 4.5 mph 6.9 mph 78 % 0.00 in 246.0 W/m2 CLR
11:55 41.0 °F 34.7 °F 30.34 in WNW 2.1 mph 6.9 mph 78 % 0.00 in 243.0 W/m2 SCT
12:01 41.0 °F 34.7 °F 30.34 in West 2.0 mph 3.5 mph 78 % 0.00 in 258.0 W/m2 CLR
12:06 40.9 °F 34.6 °F 30.34 in West 3.0 mph 6.0 mph 78 % 0.00 in 229.0 W/m2 FEW
12:11 40.9 °F 34.6 °F 30.34 in West 1.0 mph 2.3 mph 78 % 0.00 in 211.0 W/m2 SCT
12:16 40.9 °F 34.6 °F 30.34 in WSW 2.7 mph 4.0 mph 78 % 0.00 in 244.0 W/m2 SCT
12:21 41.1 °F 35.1 °F 30.34 in Calm     79 % 0.00 in 265.0 W/m2 CLR
12:26 41.4 °F 35.4 °F 30.34 in WSW 0.1 mph 1.2 mph 79 % 0.00 in 336.0 W/m2 CLR
12:31 41.4 °F 35.4 °F 30.34 in Calm     79 % 0.00 in 348.0 W/m2 CLR
12:36 41.7 °F 35.7 °F 30.33 in WSW 0.5 mph 2.3 mph 79 % 0.00 in 271.0 W/m2 CLR
12:41 41.7 °F 35.3 °F 30.33 in Calm     78 % 0.00 in 269.0 W/m2 CLR
12:46 41.9 °F 35.5 °F 30.33 in Calm   1.2 mph 78 % 0.00 in 239.0 W/m2 FEW
12:51 41.9 °F 35.5 °F 30.33 in WSW 0.9 mph 3.5 mph 78 % 0.00 in 207.0 W/m2 SCT
12:56 41.9 °F 35.5 °F 30.33 in Calm     78 % 0.00 in 214.0 W/m2 SCT
13:01 42.0 °F 35.6 °F 30.33 in Calm     78 % 0.00 in 234.0 W/m2 SCT
13:06 42.1 °F 35.7 °F 30.33 in Calm     78 % 0.00 in 239.0 W/m2 CLR
13:11 42.0 °F 35.3 °F 30.33 in Calm     77 % 0.00 in 225.0 W/m2 FEW
13:14 42.0 °F 35.3 °F 30.33 in Calm     77 % 0.00 in 236.0 W/m2 RA
13:19 42.2 °F 35.5 °F 30.33 in Calm   1.0 mph 77 % 0.00 in 260.0 W/m2 RA
13:26 42.7 °F 36.0 °F 30.33 in Calm   1.0 mph 77 % 0.00 in 243.0 W/m2 OVC
13:31 42.7 °F 35.7 °F 30.32 in Calm     76 % 0.00 in 264.0 W/m2 FEW
13:36 43.0 °F 36.3 °F 30.31 in Calm     77 % 0.00 in 262.0 W/m2 FEW
13:41 43.2 °F 36.1 °F 30.31 in Calm     76 % 0.00 in 283.0 W/m2 FEW
13:46 43.4 °F 36.3 °F 30.30 in Calm   2.3 mph 76 % 0.00 in 315.0 W/m2 FEW
13:51 43.7 °F 36.6 °F 30.30 in WNW 0.4 mph   76 % 0.00 in 338.0 W/m2 CLR
13:57 43.9 °F 36.8 °F 30.29 in Calm     76 % 0.00 in 330.0 W/m2 OVC
14:02 43.9 °F 36.8 °F 30.29 in NNW 1.2 mph 3.5 mph 76 % 0.00 in 236.0 W/m2 FEW
14:07 43.7 °F 36.6 °F 30.29 in NNW 0.1 mph 3.5 mph 76 % 0.00 in 171.0 W/m2 SCT
14:12 43.8 °F 37.1 °F 30.29 in NNW 0.2 mph 2.3 mph 77 % 0.00 in 236.0 W/m2 FEW
14:18 44.2 °F 37.1 °F 30.29 in Calm     76 % 0.00 in 258.0 W/m2 FEW
14:23 44.4 °F 37.0 °F 30.29 in Calm     75 % 0.00 in 190.0 W/m2 SCT
14:28 44.4 °F 37.3 °F 30.28 in Calm     76 % 0.00 in 207.0 W/m2 SCT
14:33 44.5 °F 37.1 °F 30.28 in Calm     75 % 0.00 in 162.0 W/m2 SCT
14:38 44.5 °F 37.1 °F 30.29 in Calm     75 % 0.00 in 163.0 W/m2 SCT
14:43 44.7 °F 37.3 °F 30.29 in Calm     75 % 0.00 in 197.0 W/m2 FEW
14:48 44.8 °F 37.4 °F 30.29 in Calm     75 % 0.00 in 160.0 W/m2 FEW
14:53 44.8 °F 37.4 °F 30.29 in SSW 0.9 mph 4.6 mph 75 % 0.00 in 149.0 W/m2 SCT
14:58 44.7 °F 37.6 °F 30.28 in Calm     76 % 0.00 in 142.0 W/m2 SCT
15:03 44.5 °F 37.4 °F 30.29 in Calm     76 % 0.00 in 142.0 W/m2 SCT
15:08 44.5 °F 37.4 °F 30.28 in Calm     76 % 0.00 in 132.0 W/m2 SCT
15:13 44.6 °F 37.5 °F 30.28 in Calm     76 % 0.00 in 118.0 W/m2 SCT
15:18 44.7 °F 37.6 °F 30.28 in Calm     76 % 0.00 in 121.0 W/m2 SCT
15:23 44.5 °F 37.4 °F 30.27 in Calm     76 % 0.00 in 105.0 W/m2 SCT
15:28 44.3 °F 37.5 °F 30.28 in Calm     77 % 0.00 in 98.0 W/m2 SCT
15:33 44.4 °F 37.6 °F 30.28 in Calm     77 % 0.00 in 93.0 W/m2 SCT
15:38 44.4 °F 37.6 °F 30.28 in Calm     77 % 0.00 in 84.0 W/m2 SCT
15:43 44.4 °F 37.6 °F 30.27 in Calm     77 % 0.00 in 72.0 W/m2 SCT
15:48 44.2 °F 37.4 °F 30.28 in Calm     77 % 0.00 in 58.0 W/m2 SCT
15:53 44.0 °F 37.6 °F 30.28 in Calm     78 % 0.00 in 53.0 W/m2 SCT
15:58 43.7 °F 37.3 °F 30.28 in Calm     78 % 0.00 in 53.0 W/m2 SCT
16:03 43.7 °F 37.3 °F 30.28 in Calm     78 % 0.00 in 53.0 W/m2 SCT
16:08 43.6 °F 37.5 °F 30.28 in Calm     79 % 0.00 in 44.0 W/m2 SCT
16:13 43.4 °F 37.3 °F 30.27 in Calm     79 % 0.00 in 26.0 W/m2 BKN
16:18 43.1 °F 37.0 °F 30.27 in Calm     79 % 0.00 in 18.0 W/m2 BKN
16:23 42.9 °F 36.8 °F 30.28 in Calm     79 % 0.00 in 12.0 W/m2 BKN
16:28 42.6 °F 36.9 °F 30.27 in Calm     80 % 0.00 in 12.0 W/m2 BKN
16:33 42.5 °F 36.8 °F 30.27 in Calm     80 % 0.00 in 12.0 W/m2 BKN
16:38 42.4 °F 37.0 °F 30.27 in Calm     81 % 0.00 in 11.0 W/m2 SCT
16:43 42.0 °F 36.3 °F 30.27 in Calm     80 % 0.00 in 7.0 W/m2 SCT
16:48 41.4 °F 36.3 °F 30.27 in Calm     82 % 0.00 in 0.0 W/m2 OVC
16:53 41.6 °F 36.5 °F 30.27 in Calm     82 % 0.00 in 0.0 W/m2 OVC
16:58 41.0 °F 35.9 °F 30.27 in Calm     82 % 0.00 in 0.0 W/m2 OVC
17:03 40.6 °F 35.8 °F 30.27 in Calm   1.2 mph 83 % 0.00 in 0.0 W/m2 CLR
17:08 40.4 °F 35.6 °F 30.27 in Calm     83 % 0.00 in 0.0 W/m2 CLR
17:13 41.2 °F 36.7 °F 30.27 in Calm   1.2 mph 84 % 0.00 in 0.0 W/m2 CLR
17:18 41.0 °F 36.2 °F 30.27 in Calm     83 % 0.00 in 0.0 W/m2 CLR
17:23 40.6 °F 36.1 °F 30.26 in Calm     84 % 0.00 in 0.0 W/m2 CLR
17:28 41.0 °F 36.5 °F 30.26 in SW 1.8 mph 2.3 mph 84 % 0.00 in 0.0 W/m2 CLR
17:33 41.2 °F 36.7 °F 30.26 in NW 2.3 mph 3.5 mph 84 % 0.00 in 0.0 W/m2 CLR
17:38 41.0 °F 36.5 °F 30.26 in Calm     84 % 0.00 in 0.0 W/m2 CLR
17:43 40.7 °F 36.2 °F 30.27 in Calm     84 % 0.00 in 0.0 W/m2 CLR
17:48 40.5 °F 36.0 °F 30.26 in Calm     84 % 0.00 in 0.0 W/m2 CLR
17:53 40.9 °F 36.7 °F 30.26 in North 1.2 mph 3.0 mph 85 % 0.00 in 0.0 W/m2 CLR
17:59 41.3 °F 37.1 °F 30.26 in Calm     85 % 0.00 in 0.0 W/m2 CLR
18:03 40.9 °F 36.7 °F 30.26 in Calm     85 % 0.00 in 0.0 W/m2 CLR
18:08 40.9 °F 36.7 °F 30.26 in Calm     85 % 0.00 in 0.0 W/m2 CLR
18:14 41.0 °F 36.8 °F 30.26 in NNW 0.1 mph   85 % 0.00 in 0.0 W/m2 CLR
18:19 41.4 °F 37.2 °F 30.27 in Calm     85 % 0.00 in 0.0 W/m2 CLR
18:24 41.6 °F 37.4 °F 30.27 in Calm     85 % 0.00 in 0.0 W/m2 CLR
18:29 41.9 °F 37.7 °F 30.27 in Calm     85 % 0.00 in 0.0 W/m2 CLR
18:34 41.3 °F 37.1 °F 30.27 in NNW 1.6 mph 1.6 mph 85 % 0.00 in 0.0 W/m2 CLR
18:39 41.2 °F 37.0 °F 30.26 in NNW 2.7 mph 3.5 mph 85 % 0.00 in 0.0 W/m2 CLR
18:44 40.8 °F 36.6 °F 30.26 in Calm     85 % 0.00 in 0.0 W/m2 CLR
18:49 40.7 °F 36.5 °F 30.26 in Calm     85 % 0.00 in 0.0 W/m2 CLR
18:54 40.6 °F 36.7 °F 30.26 in Calm     86 % 0.00 in 0.0 W/m2 CLR
18:59 40.4 °F 36.5 °F 30.26 in Calm     86 % 0.00 in 0.0 W/m2 CLR
19:04 40.4 °F 36.5 °F 30.25 in Calm     86 % 0.00 in 0.0 W/m2 CLR
19:09 40.2 °F 36.1 °F 30.25 in Calm     85 % 0.00 in 0.0 W/m2 CLR
19:14 40.3 °F 36.4 °F 30.25 in Calm     86 % 0.00 in 0.0 W/m2 CLR
19:19 40.2 °F 36.3 °F 30.25 in NNW 0.8 mph 2.3 mph 86 % 0.00 in 0.0 W/m2 CLR
19:24 40.7 °F 37.1 °F 30.25 in Calm     87 % 0.00 in 0.0 W/m2 CLR
19:29 40.7 °F 37.1 °F 30.25 in NNW 1.3 mph 2.3 mph 87 % 0.00 in 0.0 W/m2 CLR
19:34 40.7 °F 37.1 °F 30.25 in Calm     87 % 0.00 in 0.0 W/m2 CLR
19:39 40.7 °F 37.4 °F 30.25 in Calm     88 % 0.00 in 0.0 W/m2 CLR
19:44 40.8 °F 37.5 °F 30.25 in Calm     88 % 0.00 in 0.0 W/m2 CLR
19:50 41.0 °F 37.7 °F 30.25 in Calm     88 % 0.01 in 0.0 W/m2 RA
19:55 40.8 °F 37.5 °F 30.25 in Calm     88 % 0.01 in 0.0 W/m2 RA
20:00 40.6 °F 37.6 °F 30.25 in Calm     89 % 0.01 in 0.0 W/m2
20:05 40.2 °F 37.2 °F 30.25 in Calm     89 % 0.01 in 0.0 W/m2
20:10 40.2 °F 37.2 °F 30.25 in Calm     89 % 0.01 in 0.0 W/m2
20:15 40.5 °F 37.8 °F 30.25 in Calm     90 % 0.01 in 0.0 W/m2
20:20 40.7 °F 38.0 °F 30.25 in Calm     90 % 0.01 in 0.0 W/m2
20:25 40.8 °F 38.1 °F 30.25 in Calm     90 % 0.02 in 0.0 W/m2 RA
20:30 41.0 °F 38.6 °F 30.25 in Calm     91 % 0.02 in 0.0 W/m2 RA
20:35 41.1 °F 38.7 °F 30.25 in Calm     91 % 0.03 in 0.0 W/m2 RA
20:40 41.1 °F 38.7 °F 30.24 in Calm     91 % 0.03 in 0.0 W/m2 RA
20:45 41.1 °F 38.7 °F 30.25 in Calm     91 % 0.04 in 0.0 W/m2 RA
20:50 41.3 °F 39.2 °F 30.25 in Calm     92 % 0.04 in 0.0 W/m2 RA
20:55 41.0 °F 38.6 °F 30.23 in Calm     91 % 0.04 in 0.0 W/m2 RA
21:00 41.6 °F 39.7 °F 30.22 in North 0.1 mph 2.0 mph 93 % 0.05 in 0.0 W/m2 RA
21:05 43.1 °F 41.2 °F 30.19 in ESE 2.6 mph 3.5 mph 93 % 0.06 in 0.0 W/m2 RA
21:10 43.6 °F 41.7 °F 30.20 in East 0.4 mph 3.5 mph 93 % 0.06 in 0.0 W/m2 RA
21:15 43.7 °F 41.5 °F 30.22 in SSE 1.3 mph 2.3 mph 92 % 0.06 in 0.0 W/m2
21:20 43.8 °F 41.6 °F 30.22 in Calm     92 % 0.07 in 0.0 W/m2 RA
21:26 43.8 °F 41.6 °F 30.22 in Calm     92 % 0.06 in 0.0 W/m2 RA
21:31 43.6 °F 41.4 °F 30.22 in Calm     92 % 0.07 in 0.0 W/m2 RA
21:36 43.8 °F 41.9 °F 30.21 in SE 2.3 mph 5.8 mph 93 % 0.08 in 0.0 W/m2 RA
21:41 44.0 °F 42.1 °F 30.22 in SSW 3.7 mph 6.0 mph 93 % 0.08 in 0.0 W/m2 RA
21:46 44.3 °F 42.4 °F 30.22 in Calm     93 % 0.08 in 0.0 W/m2 RA
21:51 44.2 °F 42.3 °F 30.20 in Calm     93 % 0.08 in 0.0 W/m2 RA
21:56 44.2 °F 42.3 °F 30.20 in Calm     93 % 0.09 in 0.0 W/m2 RA
22:01 44.0 °F 42.1 °F 30.19 in Calm     93 % 0.09 in 0.0 W/m2 RA
22:06 43.8 °F 41.9 °F 30.19 in Calm     93 % 0.09 in 0.0 W/m2 RA
22:11 43.4 °F 41.5 °F 30.20 in Calm     93 % 0.10 in 0.0 W/m2 RA
22:16 43.5 °F 41.6 °F 30.20 in Calm   2.3 mph 93 % 0.13 in 0.0 W/m2 RA
22:21 43.3 °F 41.4 °F 30.19 in Calm   1.2 mph 93 % 0.13 in 0.0 W/m2 RA
22:26 43.7 °F 41.8 °F 30.19 in South 2.7 mph 4.6 mph 93 % 0.15 in 0.0 W/m2 RA
22:31 44.3 °F 42.7 °F 30.19 in South 3.9 mph 6.9 mph 94 % 0.15 in 0.0 W/m2 RA
22:36 44.4 °F 42.5 °F 30.19 in SSW 6.3 mph 9.2 mph 93 % 0.14 in 0.0 W/m2 RA
22:41 44.5 °F 42.9 °F 30.18 in South 4.0 mph 5.0 mph 94 % 0.16 in 0.0 W/m2 RA
22:46 44.5 °F 42.9 °F 30.19 in SW 3.0 mph 5.8 mph 94 % 0.16 in 0.0 W/m2 RA
22:51 44.5 °F 42.9 °F 30.19 in SSW 4.1 mph 5.8 mph 94 % 0.15 in 0.0 W/m2 RA
22:56 44.5 °F 42.9 °F 30.19 in SW 2.9 mph 7.0 mph 94 % 0.15 in 0.0 W/m2 RA
23:01 44.7 °F 43.1 °F 30.18 in SSW 3.2 mph 3.5 mph 94 % 0.15 in 0.0 W/m2 RA
23:06 44.7 °F 43.1 °F 30.18 in SSW 3.3 mph 9.0 mph 94 % 0.14 in 0.0 W/m2 RA
23:11 44.9 °F 43.0 °F 30.18 in SW 2.4 mph 3.5 mph 93 % 0.13 in 0.0 W/m2
23:16 45.0 °F 43.1 °F 30.18 in SSW 3.0 mph 4.6 mph 93 % 0.10 in 0.0 W/m2
23:21 45.0 °F 43.1 °F 30.18 in SW 2.9 mph 3.5 mph 93 % 0.08 in 0.0 W/m2
23:26 45.0 °F 43.1 °F 30.18 in SW 1.9 mph 3.5 mph 93 % 0.07 in 0.0 W/m2
23:31 45.0 °F 43.1 °F 30.18 in SW 3.9 mph 8.1 mph 93 % 0.06 in 0.0 W/m2
23:36 45.0 °F 43.1 °F 30.18 in SW 0.6 mph 3.5 mph 93 % 0.04 in 0.0 W/m2
23:41 45.0 °F 43.1 °F 30.17 in SW 3.0 mph 4.6 mph 93 % 0.04 in 0.0 W/m2 RA
23:46 45.1 °F 43.2 °F 30.17 in SW 3.9 mph 4.6 mph 93 % 0.03 in 0.0 W/m2 RA
23:51 44.9 °F 43.0 °F 30.17 in WSW 1.8 mph 3.5 mph 93 % 0.02 in 0.0 W/m2
23:56 44.8 °F 42.9 °F 30.17 in WSW 1.9 mph 3.5 mph 93 % 0.02 in 0.0 W/m2
Air Products Campus Weather
Compliments of Weather Underground - 3.5 mb